Time;durP1;ratioP1;P1;durP2;ratioP2;P2;SDS_P1;SDS_P2;PMS_P1;PMS_P2;Temp;Humidity;BMP_temperature;BMP_pressure;BME280_temperature;BME280_humidity;BME280_pressure;Samples;Min_cycle;Max_cycle;Signal;HPM_P1;HPM_P2
2022/04/22 00:01:33;;;;;;;8.18;6.00;;;7.20;48.90;;;;;;5031735;28;20267;-62
2022/04/22 00:04:00;;;;;;;10.00;6.90;;;7.10;49.10;;;;;;5032402;28;20199;-62
2022/04/22 00:06:28;;;;;;;9.02;5.47;;;7.00;49.40;;;;;;5031740;28;20650;-62
2022/04/22 00:08:55;;;;;;;8.40;5.68;;;6.90;49.60;;;;;;5032132;28;20277;-62
2022/04/22 00:11:31;;;;;;;6.35;5.75;;;6.90;49.90;;;;;;5031659;28;20609;-62
2022/04/22 00:14:00;;;;;;;8.88;5.68;;;6.90;49.70;;;;;;5031664;28;20199;-63
2022/04/22 00:16:28;;;;;;;13.00;6.07;;;6.90;49.80;;;;;;5032250;28;20269;-62
2022/04/22 00:18:56;;;;;;;7.60;6.05;;;6.90;50.00;;;;;;5031485;28;20195;-62
2022/04/22 00:21:24;;;;;;;8.15;5.15;;;6.80;50.00;;;;;;5032215;28;20281;-61
2022/04/22 00:23:51;;;;;;;13.23;9.23;;;6.80;50.30;;;;;;5031629;28;20294;-62
2022/04/22 00:26:18;;;;;;;7.45;5.72;;;6.70;50.10;;;;;;5032015;28;20553;-62
2022/04/22 00:28:46;;;;;;;10.38;6.35;;;6.70;50.40;;;;;;5032262;28;20199;-63
2022/04/22 00:31:13;;;;;;;8.57;5.72;;;6.70;50.60;;;;;;5031528;28;20218;-62
2022/04/22 00:33:40;;;;;;;7.32;5.25;;;6.70;50.90;;;;;;5032172;28;20615;-62
2022/04/22 00:36:09;;;;;;;11.70;5.38;;;6.70;51.40;;;;;;5031395;28;20201;-62
2022/04/22 00:38:36;;;;;;;7.82;5.43;;;6.70;51.10;;;;;;5030022;28;20209;-62
2022/04/22 00:41:04;;;;;;;9.63;6.20;;;6.60;51.00;;;;;;5031219;28;20309;-62
2022/04/22 00:43:42;;;;;;;10.10;6.20;;;6.50;50.80;;;;;;5031949;28;20278;-61
2022/04/22 00:46:09;;;;;;;8.32;6.25;;;6.50;50.90;;;;;;5030909;28;20206;-62
2022/04/22 00:48:37;;;;;;;7.47;5.30;;;6.50;50.50;;;;;;5031990;28;20199;-62
2022/04/22 00:51:05;;;;;;;7.70;5.22;;;6.50;50.50;;;;;;5031591;28;20215;-62
2022/04/22 00:53:37;;;;;;;6.60;4.30;;;6.30;50.90;;;;;;5031898;28;20629;-62
2022/04/22 00:56:05;;;;;;;7.55;5.10;;;6.30;51.80;;;;;;5031526;28;20187;-62
2022/04/22 00:58:33;;;;;;;8.70;5.28;;;6.20;52.00;;;;;;5031819;28;20281;-62
2022/04/22 01:01:00;;;;;;;7.32;5.22;;;6.20;52.00;;;;;;5031458;28;20535;-62
2022/04/22 01:03:27;;;;;;;8.02;4.65;;;6.30;51.60;;;;;;5031996;28;20274;-62
2022/04/22 01:11:23;;;;;;;7.75;6.13;;;6.20;52.60;;;;;;5031076;28;20681;-62
2022/04/22 01:13:51;;;;;;;9.20;5.90;;;6.10;52.70;;;;;;5031816;28;20254;-62
2022/04/22 01:16:18;;;;;;;8.10;5.78;;;6.00;52.90;;;;;;5031374;28;20249;-61
2022/04/22 01:18:45;;;;;;;10.88;6.70;;;6.00;52.70;;;;;;5031866;28;20281;-62
2022/04/22 01:21:14;;;;;;;9.52;5.93;;;5.90;53.30;;;;;;5031614;28;20191;-62
2022/04/22 01:23:41;;;;;;;7.47;6.05;;;5.90;53.90;;;;;;5031769;28;20215;-62
2022/04/22 01:26:09;;;;;;;8.20;5.75;;;6.00;54.10;;;;;;5031496;28;20191;-62
2022/04/22 01:28:36;;;;;;;7.57;5.25;;;5.90;53.60;;;;;;5031487;28;20202;-62
2022/04/22 01:31:03;;;;;;;8.93;6.45;;;5.90;53.80;;;;;;5031312;28;20296;-62
2022/04/22 01:33:30;;;;;;;8.60;5.93;;;5.80;53.80;;;;;;5033605;28;20191;-62
2022/04/22 01:35:58;;;;;;;8.20;6.40;;;5.70;54.30;;;;;;5034636;28;20191;-62
2022/04/22 01:38:26;;;;;;;8.23;6.25;;;5.70;54.60;;;;;;5035302;28;20700;-62
2022/04/22 01:40:54;;;;;;;8.00;7.00;;;5.70;54.50;;;;;;5034475;28;20588;-62
2022/04/22 01:43:21;;;;;;;8.55;6.50;;;5.60;55.00;;;;;;5034656;28;20294;-63
2022/04/22 01:45:52;;;;;;;7.80;6.43;;;5.60;55.10;;;;;;5034577;28;20633;-62
2022/04/22 01:48:20;;;;;;;9.00;6.85;;;5.50;55.40;;;;;;5034765;28;20638;-63
2022/04/22 01:50:47;;;;;;;12.50;7.18;;;5.60;55.40;;;;;;5034806;28;20225;-62
2022/04/22 01:53:15;;;;;;;9.93;6.20;;;5.60;55.20;;;;;;5034649;28;20270;-62
2022/04/22 01:55:43;;;;;;;12.50;7.25;;;5.60;55.00;;;;;;5034581;28;20191;-62
2022/04/22 01:58:10;;;;;;;9.40;6.10;;;5.60;54.90;;;;;;5034815;28;20237;-62
2022/04/22 02:00:38;;;;;;;8.50;5.32;;;5.60;54.60;;;;;;5034157;28;20191;-62
2022/04/22 02:03:05;;;;;;;10.25;6.72;;;5.60;54.70;;;;;;5034324;28;20645;-63
2022/04/22 02:05:33;;;;;;;7.82;7.03;;;5.50;54.50;;;;;;5034696;28;20223;-64
2022/04/22 02:08:01;;;;;;;7.10;5.55;;;5.50;55.90;;;;;;5034128;28;20183;-62
2022/04/22 02:10:28;;;;;;;8.90;5.90;;;5.50;55.30;;;;;;5034450;28;20222;-62
2022/04/22 02:12:56;;;;;;;9.65;7.38;;;5.50;55.20;;;;;;5034167;28;20187;-61
2022/04/22 02:15:24;;;;;;;11.43;6.32;;;5.50;55.20;;;;;;5034089;28;20219;-62
2022/04/22 02:17:52;;;;;;;9.10;7.47;;;5.50;55.50;;;;;;5033978;28;20183;-62
2022/04/22 02:20:19;;;;;;;7.57;6.00;;;5.50;55.10;;;;;;5034412;28;20241;-62
2022/04/22 02:22:46;;;;;;;10.38;6.60;;;5.50;54.80;;;;;;5034097;28;20577;-62
2022/04/22 02:25:13;;;;;;;9.70;7.10;;;5.50;55.20;;;;;;5034066;28;20209;-62
2022/04/22 02:30:26;;;;;;;8.43;6.20;;;5.40;56.10;;;;;;5033835;28;20222;-63
2022/04/22 02:32:53;;;;;;;13.63;6.57;;;5.40;55.90;;;;;;5034068;28;20205;-62
2022/04/22 02:35:21;;;;;;;11.05;6.60;;;5.40;56.20;;;;;;5033902;28;20211;-61
2022/04/22 02:37:48;;;;;;;9.02;6.35;;;5.40;56.00;;;;;;5034065;28;20652;-62
2022/04/22 02:45:26;;;;;;;13.68;8.15;;;5.40;55.90;;;;;;5033759;28;20195;-62
2022/04/22 02:45:51;;;;;;;10.23;6.78;;;5.20;56.80;;;;;;5032347;28;20194;-62
2022/04/22 02:48:19;;;;;;;8.20;6.10;;;5.10;56.90;;;;;;5033877;28;20270;-61
2022/04/22 02:50:46;;;;;;;11.23;7.50;;;5.10;56.80;;;;;;5033167;28;20712;-62
2022/04/22 02:53:13;;;;;;;10.23;6.78;;;5.00;57.20;;;;;;5033837;28;20194;-62
2022/04/22 02:55:49;;;;;;;9.05;6.95;;;5.00;57.40;;;;;;5032704;28;20206;-61
2022/04/22 02:58:17;;;;;;;11.75;7.43;;;4.90;57.90;;;;;;5033099;28;20207;-62
2022/04/22 03:00:44;;;;;;;12.38;7.97;;;4.90;58.00;;;;;;5033606;28;20199;-62
2022/04/22 03:03:13;;;;;;;11.32;6.85;;;4.80;57.60;;;;;;5033656;28;20234;-62
2022/04/22 03:05:40;;;;;;;11.32;6.97;;;4.80;57.90;;;;;;5033140;28;20188;-62
2022/04/22 03:08:08;;;;;;;9.13;7.15;;;4.80;57.80;;;;;;5033163;28;20336;-62
2022/04/22 03:10:35;;;;;;;9.65;6.95;;;4.90;57.90;;;;;;5013216;28;20215;-62
2022/04/22 03:13:03;;;;;;;10.85;9.32;;;4.90;57.40;;;;;;5020556;28;20180;-62
2022/04/22 03:15:32;;;;;;;9.98;7.18;;;4.90;58.00;;;;;;5032919;28;20229;-61
2022/04/22 03:17:59;;;;;;;10.32;6.30;;;4.90;57.80;;;;;;5032892;28;20621;-62
2022/04/22 03:20:28;;;;;;;7.55;6.35;;;4.90;57.50;;;;;;5033183;28;20191;-62
2022/04/22 03:22:55;;;;;;;10.18;7.35;;;4.90;57.30;;;;;;5032714;28;20226;-62
2022/04/22 03:25:23;;;;;;;8.13;7.15;;;4.80;57.10;;;;;;5032935;28;20257;-62
2022/04/22 03:27:51;;;;;;;10.60;6.93;;;4.80;57.10;;;;;;5032978;28;20701;-62
2022/04/22 03:30:18;;;;;;;9.13;6.97;;;4.80;56.90;;;;;;5033003;28;20708;-61
2022/04/22 03:32:45;;;;;;;8.00;6.57;;;4.70;57.20;;;;;;5032665;28;20662;-61
2022/04/22 03:35:12;;;;;;;10.43;7.30;;;4.70;57.20;;;;;;5033123;28;20253;-62
2022/04/22 03:37:42;;;;;;;8.27;6.95;;;4.70;57.60;;;;;;5032552;28;20195;-62
2022/04/22 03:40:11;;;;;;;10.88;7.78;;;4.70;57.80;;;;;;5032807;28;20557;-62
2022/04/22 03:42:38;;;;;;;9.93;7.50;;;4.70;58.20;;;;;;5032615;28;20322;-62
2022/04/22 03:45:06;;;;;;;10.02;7.88;;;4.70;58.50;;;;;;5032766;28;20191;-62
2022/04/22 03:47:33;;;;;;;8.73;6.65;;;4.70;58.40;;;;;;5032041;28;20195;-62
2022/04/22 03:50:00;;;;;;;10.52;7.20;;;4.70;58.30;;;;;;5032193;28;20561;-61
2022/04/22 03:52:28;;;;;;;9.20;6.70;;;4.70;58.10;;;;;;5032562;28;20194;-62
2022/04/22 03:54:57;;;;;;;10.27;7.40;;;4.60;58.20;;;;;;5012865;28;20184;-62
2022/04/22 04:00:09;;;;;;;13.48;6.50;;;4.60;58.30;;;;;;5012929;28;20194;-62
2022/04/22 04:02:37;;;;;;;10.40;7.38;;;4.60;58.50;;;;;;5014073;28;20218;-62
2022/04/22 04:05:04;;;;;;;12.93;7.85;;;4.50;58.30;;;;;;5032224;28;20206;-61
2022/04/22 04:07:31;;;;;;;13.20;9.27;;;4.50;58.10;;;;;;5032102;28;20191;-62
2022/04/22 04:18:10;;;;;;;18.98;10.57;;;4.30;58.60;;;;;;5013242;28;20216;-61
2022/04/22 04:23:22;;;;;;;17.88;11.90;;;4.40;59.30;;;;;;5032692;28;20229;-61
2022/04/22 04:25:51;;;;;;;18.33;10.85;;;4.40;58.80;;;;;;5032076;28;20190;-62
2022/04/22 04:28:18;;;;;;;13.90;9.50;;;4.40;58.70;;;;;;5032020;28;20756;-63
2022/04/22 04:30:46;;;;;;;17.27;8.18;;;4.40;58.70;;;;;;5032305;28;20219;-62
2022/04/22 04:33:14;;;;;;;16.13;10.63;;;4.50;59.20;;;;;;5032602;28;20639;-61
2022/04/22 04:35:46;;;;;;;14.38;10.07;;;4.50;59.30;;;;;;5031984;28;20270;-61
2022/04/22 04:38:13;;;;;;;12.23;9.20;;;4.50;59.30;;;;;;5032786;28;20195;-62
2022/04/22 04:40:40;;;;;;;14.18;9.95;;;4.50;59.10;;;;;;5031814;28;20191;-62
2022/04/22 04:43:09;;;;;;;12.43;9.07;;;4.50;59.20;;;;;;5032224;28;20195;-62
2022/04/22 04:45:37;;;;;;;15.05;9.35;;;4.50;59.30;;;;;;5031993;28;20187;-61
2022/04/22 04:48:08;;;;;;;11.85;8.98;;;4.60;59.40;;;;;;5032496;28;20302;-62
2022/04/22 04:50:35;;;;;;;10.07;8.15;;;4.60;59.10;;;;;;5032078;28;20357;-62
2022/04/22 04:53:03;;;;;;;11.50;8.02;;;4.60;59.20;;;;;;5032210;28;20198;-62
2022/04/22 04:55:30;;;;;;;14.23;9.70;;;4.70;59.40;;;;;;5031820;28;20201;-62
2022/04/22 04:57:57;;;;;;;12.02;8.30;;;4.70;59.30;;;;;;5032298;28;20206;-62
2022/04/22 05:00:25;;;;;;;13.60;9.95;;;4.70;59.00;;;;;;5031980;28;20270;-62
2022/04/22 05:02:55;;;;;;;15.88;10.88;;;4.70;59.40;;;;;;5031695;28;20237;-62
2022/04/22 05:05:22;;;;;;;18.00;11.43;;;4.70;59.50;;;;;;5032009;28;20553;-61
2022/04/22 05:07:51;;;;;;;15.40;10.57;;;4.80;59.90;;;;;;5032314;28;20234;-62
2022/04/22 05:10:19;;;;;;;15.02;11.95;;;4.80;59.40;;;;;;5036042;28;20608;-62
2022/04/22 05:12:46;;;;;;;16.95;11.35;;;4.70;59.30;;;;;;5035609;28;20646;-62
2022/04/22 05:15:14;;;;;;;20.92;14.15;;;4.80;59.50;;;;;;5036310;28;20187;-62
2022/04/22 05:17:43;;;;;;;17.00;11.20;;;4.90;59.80;;;;;;5035208;28;20190;-62
2022/04/22 05:20:11;;;;;;;18.33;10.88;;;5.00;60.50;;;;;;5035839;28;20195;-62
2022/04/22 05:22:39;;;;;;;19.10;10.70;;;5.10;60.40;;;;;;5035397;28;20605;-62
2022/04/22 05:25:11;;;;;;;15.27;10.10;;;5.20;60.50;;;;;;5035651;28;20202;-61
2022/04/22 05:27:38;;;;;;;12.45;8.52;;;5.20;60.00;;;;;;5035417;28;20294;-62
2022/04/22 05:32:54;;;;;;;12.52;9.10;;;5.20;59.50;;;;;;5032993;28;20564;-62
2022/04/22 05:35:22;;;;;;;17.42;11.60;;;5.30;59.40;;;;;;5035209;28;20191;-62
2022/04/22 05:37:51;;;;;;;35.35;19.60;;;5.30;59.50;;;;;;5034481;28;20250;-62
2022/04/22 05:40:20;;;;;;;24.95;15.90;;;5.40;59.50;;;;;;5034244;28;20191;-62
2022/04/22 05:42:48;;;;;;;32.63;18.40;;;5.40;59.50;;;;;;5034663;28;20226;-62
2022/04/22 05:45:17;;;;;;;25.40;14.95;;;5.50;59.40;;;;;;5035086;28;20218;-61
2022/04/22 05:47:45;;;;;;;19.30;11.88;;;5.50;59.10;;;;;;5035095;28;20692;-63
2022/04/22 05:50:15;;;;;;;13.27;9.75;;;5.50;59.50;;;;;;5034978;28;20286;-63
2022/04/22 05:52:42;;;;;;;18.67;10.25;;;5.60;59.60;;;;;;5035101;28;20310;-62
2022/04/22 05:55:12;;;;;;;17.67;10.82;;;5.70;59.60;;;;;;5035073;28;20253;-62
2022/04/22 05:57:39;;;;;;;13.43;9.10;;;5.80;59.50;;;;;;5035103;28;20534;-62
2022/04/22 06:00:09;;;;;;;12.73;9.10;;;6.00;59.50;;;;;;5034789;28;20294;-62
2022/04/22 06:02:36;;;;;;;14.15;9.45;;;6.10;59.30;;;;;;5035235;28;20299;-62
2022/04/22 06:05:03;;;;;;;14.57;9.52;;;6.20;59.00;;;;;;5034270;28;20289;-62
2022/04/22 06:07:32;;;;;;;11.48;8.88;;;6.30;59.20;;;;;;5034933;28;20278;-62
2022/04/22 06:12:43;;;;;;;15.55;10.40;;;6.40;58.90;;;;;;5034851;28;20225;-61
2022/04/22 06:15:10;;;;;;;12.88;9.32;;;6.50;59.40;;;;;;5035017;28;20206;-62
2022/04/22 06:17:37;;;;;;;10.73;9.18;;;6.50;59.50;;;;;;5034530;28;20194;-62
2022/04/22 06:20:05;;;;;;;11.57;8.73;;;6.70;59.90;;;;;;5034457;28;20193;-61
2022/04/22 06:22:33;;;;;;;11.65;9.25;;;6.70;59.40;;;;;;5034725;28;20187;-61
2022/04/22 06:25:00;;;;;;;11.30;9.60;;;6.70;59.90;;;;;;5034134;28;20191;-62
2022/04/22 06:27:29;;;;;;;12.00;9.30;;;6.80;60.30;;;;;;5034817;28;20281;-62
2022/04/22 06:30:00;;;;;;;19.58;9.80;;;7.00;60.90;;;;;;5034361;28;20270;-62
2022/04/22 06:32:27;;;;;;;10.82;9.25;;;7.20;60.20;;;;;;5033582;28;20600;-62
2022/04/22 06:34:55;;;;;;;13.32;9.90;;;7.30;59.70;;;;;;5036292;28;20705;-62
2022/04/22 06:37:22;;;;;;;13.25;10.60;;;7.40;59.50;;;;;;5054365;28;20277;-61
2022/04/22 06:48:07;;;;;;;12.32;10.75;;;7.90;59.40;;;;;;5023027;28;20778;-62
2022/04/22 06:50:35;;;;;;;12.35;9.80;;;8.10;59.60;;;;;;5033357;28;20693;-64
2022/04/22 06:53:02;;;;;;;15.32;11.50;;;8.30;59.80;;;;;;5032977;28;20225;-62
2022/04/22 06:55:31;;;;;;;12.80;10.23;;;8.40;59.60;;;;;;5034157;28;20542;-62
2022/04/22 06:58:01;;;;;;;12.35;10.60;;;8.60;59.40;;;;;;5034250;28;20542;-62
2022/04/22 07:00:29;;;;;;;16.00;10.32;;;8.70;59.50;;;;;;5034534;28;20282;-62
2022/04/22 07:02:56;;;;;;;18.58;10.88;;;8.80;60.00;;;;;;5034054;28;20195;-62
2022/04/22 07:05:24;;;;;;;14.00;10.48;;;9.10;59.90;;;;;;5033980;28;20191;-63
2022/04/22 07:07:51;;;;;;;13.60;11.70;;;9.20;59.00;;;;;;5034073;28;20195;-62
2022/04/22 07:10:19;;;;;;;14.23;11.10;;;9.40;58.70;;;;;;5034033;28;20274;-63
2022/04/22 07:12:48;;;;;;;13.77;11.20;;;9.50;58.60;;;;;;5034099;28;20735;-64
2022/04/22 07:15:15;;;;;;;14.35;11.50;;;9.70;58.50;;;;;;5034064;28;20277;-63
2022/04/22 07:17:42;;;;;;;14.90;11.65;;;9.80;57.70;;;;;;5034073;28;20226;-62
2022/04/22 07:20:11;;;;;;;15.18;11.48;;;10.00;57.10;;;;;;5033947;28;20638;-62
2022/04/22 07:22:39;;;;;;;18.33;13.43;;;10.20;56.90;;;;;;5033859;28;20233;-62
2022/04/22 07:25:08;;;;;;;14.82;12.70;;;10.30;57.00;;;;;;5033887;28;20195;-62
2022/04/22 07:27:37;;;;;;;12.02;10.82;;;10.50;56.70;;;;;;5033810;28;20187;-63
2022/04/22 07:30:08;;;;;;;14.75;12.43;;;10.70;56.30;;;;;;5033409;28;20610;-62
2022/04/22 07:32:37;;;;;;;15.35;13.02;;;10.80;56.10;;;;;;5033408;28;20570;-62
2022/04/22 07:35:05;;;;;;;14.02;12.52;;;11.10;56.40;;;;;;5033587;28;20274;-63
2022/04/22 07:37:34;;;;;;;14.23;11.80;;;11.30;56.10;;;;;;5033629;28;20282;-62
2022/04/22 07:40:01;;;;;;;14.52;12.68;;;11.60;56.50;;;;;;5033428;28;20195;-63
2022/04/22 07:42:30;;;;;;;14.27;11.18;;;12.00;57.00;;;;;;5033428;28;20572;-63
2022/04/22 07:47:46;;;;;;;11.90;10.73;;;12.80;55.00;;;;;;5033721;28;20194;-62
2022/04/22 07:50:14;;;;;;;12.70;10.30;;;13.00;52.50;;;;;;5033568;28;20546;-62
2022/04/22 07:52:44;;;;;;;12.25;11.00;;;13.20;51.90;;;;;;5033329;28;20244;-62
2022/04/22 07:55:12;;;;;;;11.45;10.35;;;13.40;52.70;;;;;;5033155;28;20197;-63
2022/04/22 07:57:40;;;;;;;11.98;10.30;;;13.60;51.30;;;;;;5033388;28;20206;-63
2022/04/22 08:00:08;;;;;;;10.77;9.68;;;13.80;50.70;;;;;;5032775;28;20281;-62
2022/04/22 08:02:40;;;;;;;13.18;11.77;;;14.00;50.70;;;;;;5033124;28;20194;-63
2022/04/22 08:05:10;;;;;;;11.43;10.33;;;14.20;50.10;;;;;;5033142;28;20313;-62
2022/04/22 08:07:38;;;;;;;13.53;10.50;;;14.30;45.90;;;;;;5033266;28;20441;-63
2022/04/22 08:10:05;;;;;;;12.43;11.00;;;14.20;47.10;;;;;;5033132;28;20526;-63
2022/04/22 08:12:33;;;;;;;11.60;10.07;;;14.30;47.40;;;;;;5033051;28;20990;-62
2022/04/22 08:15:00;;;;;;;13.57;11.87;;;14.30;47.30;;;;;;5032795;28;20458;-63
2022/04/22 08:17:27;;;;;;;12.60;11.07;;;14.30;47.10;;;;;;5032964;28;20437;-63
2022/04/22 08:19:54;;;;;;;12.67;11.03;;;14.40;47.40;;;;;;5033046;28;20438;-63
2022/04/22 08:22:23;;;;;;;18.13;11.90;;;14.50;46.10;;;;;;5032884;28;20451;-62
2022/04/22 08:24:50;;;;;;;12.30;11.10;;;14.60;46.60;;;;;;5033136;28;20545;-62
2022/04/22 08:27:18;;;;;;;12.43;11.10;;;14.70;47.40;;;;;;5032654;28;20935;-64
2022/04/22 08:29:45;;;;;;;12.27;11.00;;;15.00;46.70;;;;;;5028151;28;20449;-63
2022/04/22 08:32:16;;;;;;;16.87;12.60;;;15.10;46.20;;;;;;5031414;28;20484;-63
2022/04/22 08:34:43;;;;;;;15.20;12.80;;;15.30;45.90;;;;;;5031207;28;20445;-62
2022/04/22 08:37:09;;;;;;;19.37;13.13;;;15.40;44.90;;;;;;5031561;28;20939;-63
2022/04/22 08:39:38;;;;;;;14.23;11.63;;;15.50;45.00;;;;;;5031404;28;20449;-63
2022/04/22 08:42:05;;;;;;;13.23;11.90;;;15.70;45.20;;;;;;5030853;28;20549;-63
2022/04/22 08:44:32;;;;;;;14.47;11.87;;;15.90;46.20;;;;;;5034891;28;20548;-63
2022/04/22 08:50:06;;;;;;;12.27;10.60;;;16.20;43.20;;;;;;5035251;28;20468;-63
2022/04/22 08:52:36;;;;;;;14.23;12.00;;;16.30;42.70;;;;;;5035088;28;20489;-63
2022/04/22 08:55:07;;;;;;;14.63;12.50;;;16.40;41.80;;;;;;5035392;28;20536;-63
2022/04/22 08:57:34;;;;;;;13.47;12.10;;;16.40;42.50;;;;;;5035472;28;20529;-63
2022/04/22 09:00:03;;;;;;;22.53;12.00;;;16.50;42.80;;;;;;5035099;28;20464;-63
2022/04/22 09:02:30;;;;;;;11.80;10.30;;;16.50;42.60;;;;;;5034719;28;20447;-63
2022/04/22 09:04:57;;;;;;;14.07;12.57;;;16.60;43.50;;;;;;5035286;28;20528;-63
2022/04/22 09:07:27;;;;;;;14.43;10.80;;;16.70;42.10;;;;;;5035028;28;20444;-64
2022/04/22 09:09:54;;;;;;;13.00;11.80;;;16.90;42.30;;;;;;5034537;28;20540;-63
2022/04/22 09:12:24;;;;;;;14.77;13.10;;;17.10;42.00;;;;;;5034750;28;20532;-63
2022/04/22 09:14:54;;;;;;;13.27;11.87;;;17.20;42.40;;;;;;5035018;28;20445;-63
2022/04/22 09:17:24;;;;;;;14.67;12.23;;;17.40;41.90;;;;;;5034930;28;20448;-63
2022/04/22 09:19:53;;;;;;;14.07;12.73;;;17.50;41.40;;;;;;5035098;28;20528;-63
2022/04/22 09:22:21;;;;;;;15.23;13.83;;;17.60;41.70;;;;;;5034426;28;20445;-64
2022/04/22 09:24:50;;;;;;;14.33;12.50;;;17.80;41.60;;;;;;5034736;28;20449;-64
2022/04/22 09:27:18;;;;;;;12.30;10.67;;;17.80;40.10;;;;;;5034758;28;20449;-64
2022/04/22 09:29:54;;;;;;;14.23;12.67;;;17.90;40.20;;;;;;5035147;28;20473;-63
2022/04/22 09:32:25;;;;;;;15.27;13.73;;;18.00;40.00;;;;;;5031282;28;20481;-63
2022/04/22 09:34:55;;;;;;;17.60;15.80;;;18.10;38.90;;;;;;5031464;28;20528;-63
2022/04/22 09:42:54;;;;;;;14.50;13.00;;;18.20;39.70;;;;;;5031863;28;20457;-63
2022/04/22 09:45:23;;;;;;;14.90;13.40;;;18.40;39.70;;;;;;5034928;28;20892;-64
2022/04/22 09:47:59;;;;;;;19.43;13.83;;;18.50;39.60;;;;;;5031049;28;20438;-64
2022/04/22 09:50:44;;;;;;;17.50;15.70;;;18.60;37.30;;;;;;5034571;28;20441;-63
2022/04/22 09:53:12;;;;;;;15.83;14.20;;;18.40;37.50;;;;;;5033656;28;20982;-63
2022/04/22 09:55:52;;;;;;;15.97;14.27;;;18.30;36.80;;;;;;5034355;28;20596;-63
2022/04/22 09:58:26;;;;;;;17.83;13.90;;;18.20;37.00;;;;;;5034428;28;20469;-65
2022/04/22 10:01:00;;;;;;;18.17;14.97;;;18.10;38.00;;;;;;5030573;28;20520;-64
2022/04/22 10:03:29;;;;;;;18.40;16.10;;;18.10;38.20;;;;;;5034333;28;20983;-64
2022/04/22 10:05:56;;;;;;;16.70;14.90;;;18.20;38.40;;;;;;5030875;28;20446;-64
2022/04/22 10:08:25;;;;;;;17.63;15.93;;;18.30;37.80;;;;;;5034218;28;20919;-64
2022/04/22 10:10:53;;;;;;;17.43;15.83;;;18.40;38.50;;;;;;5033419;28;20541;-64
2022/04/22 10:13:25;;;;;;;18.20;15.80;;;18.70;39.30;;;;;;5032909;28;20600;-63
2022/04/22 10:15:53;;;;;;;15.50;13.53;;;19.00;39.30;;;;;;5033819;28;20446;-65
2022/04/22 10:18:23;;;;;;;17.07;15.27;;;19.30;40.20;;;;;;5033906;28;20861;-63
2022/04/22 10:20:50;;;;;;;16.17;14.37;;;19.60;38.40;;;;;;5033092;28;20524;-63
2022/04/22 10:23:17;;;;;;;15.67;13.80;;;19.80;37.90;;;;;;5033527;28;20488;-65
2022/04/22 10:25:44;;;;;;;15.87;14.20;;;19.80;37.90;;;;;;5033784;28;20441;-63
2022/04/22 10:28:12;;;;;;;17.13;15.53;;;19.90;37.30;;;;;;5033581;28;20448;-63
2022/04/22 10:30:42;;;;;;;16.30;14.60;;;20.10;37.40;;;;;;5033382;28;20540;-63
2022/04/22 10:33:10;;;;;;;17.50;14.60;;;20.30;37.50;;;;;;5033128;28;20488;-63
2022/04/22 10:35:44;;;;;;;16.20;14.47;;;20.30;35.70;;;;;;5032364;28;20438;-63
2022/04/22 10:38:27;;;;;;;15.70;14.07;;;20.30;35.60;;;;;;5033617;28;20461;-63
2022/04/22 10:40:54;;;;;;;20.43;15.20;;;20.30;36.40;;;;;;5032609;28;20912;-63
2022/04/22 10:43:21;;;;;;;18.27;16.10;;;20.40;36.50;;;;;;5032241;28;20529;-63
2022/04/22 10:48:32;;;;;;;16.07;14.67;;;20.50;33.90;;;;;;5031129;28;20444;-63
2022/04/22 10:51:02;;;;;;;14.90;13.43;;;20.40;34.80;;;;;;5032722;28;20949;-63
2022/04/22 10:53:33;;;;;;;16.07;14.43;;;20.40;35.70;;;;;;5033186;28;20903;-63
2022/04/22 10:56:33;;;;;;;18.23;14.47;;;20.30;35.60;;;;;;5032896;28;20540;-63
2022/04/22 10:59:27;;;;;;;16.27;14.00;;;20.30;36.00;;;;;;5032925;28;20449;-63
2022/04/22 11:01:56;;;;;;;17.67;15.97;;;20.40;35.40;;;;;;5022803;28;20448;-64
2022/04/22 11:04:28;;;;;;;16.00;13.47;;;20.50;35.40;;;;;;5033135;28;20543;-63
2022/04/22 11:06:57;;;;;;;16.10;14.40;;;20.60;34.60;;;;;;5032098;28;20500;-64
2022/04/22 11:09:28;;;;;;;17.27;15.50;;;20.60;34.30;;;;;;5032780;28;20437;-63
2022/04/22 11:11:55;;;;;;;17.03;15.23;;;20.60;34.70;;;;;;5032729;28;20437;-64
2022/04/22 11:14:25;;;;;;;19.03;15.33;;;20.50;34.80;;;;;;5032725;28;20489;-63
2022/04/22 11:16:54;;;;;;;16.10;14.43;;;20.50;34.50;;;;;;5032907;28;20916;-63
2022/04/22 11:19:29;;;;;;;17.07;15.23;;;20.60;35.10;;;;;;5032265;28;20446;-64
2022/04/22 11:21:59;;;;;;;20.13;14.30;;;20.60;34.40;;;;;;5032600;28;20536;-63
2022/04/22 11:24:28;;;;;;;18.00;15.50;;;20.70;33.70;;;;;;5025948;28;20545;-64
2022/04/22 11:27:07;;;;;;;15.73;14.13;;;20.70;34.40;;;;;;5027741;28;20529;-64
2022/04/22 11:29:40;;;;;;;14.07;12.70;;;20.80;34.60;;;;;;5031157;28;20896;-64
2022/04/22 11:32:18;;;;;;;13.63;11.57;;;20.80;34.80;;;;;;5031900;28;20553;-63
2022/04/22 11:35:04;;;;;;;13.90;11.67;;;20.80;35.90;;;;;;5030287;28;20434;-63
2022/04/22 11:37:33;;;;;;;16.00;12.93;;;20.80;33.40;;;;;;5031296;28;20496;-63
2022/04/22 11:40:00;;;;;;;14.13;11.80;;;20.80;33.60;;;;;;5031373;28;20481;-63
2022/04/22 11:42:29;;;;;;;13.57;12.27;;;20.90;33.70;;;;;;5028285;28;20480;-66
2022/04/22 11:45:03;;;;;;;14.70;13.20;;;20.90;33.70;;;;;;5031854;28;20852;-68
2022/04/22 11:47:31;;;;;;;12.60;11.40;;;21.00;34.00;;;;;;5031401;28;20440;-63
2022/04/22 11:49:58;;;;;;;12.83;11.53;;;21.00;34.40;;;;;;5032067;28;20446;-64
2022/04/22 11:52:28;;;;;;;15.27;11.70;;;21.10;34.70;;;;;;5030835;28;20445;-64
2022/04/22 11:55:01;;;;;;;12.77;11.50;;;21.10;34.70;;;;;;5031340;28;20449;-64
2022/04/22 11:57:29;;;;;;;12.20;10.90;;;21.10;33.70;;;;;;5031542;28;20445;-65
2022/04/22 12:05:33;;;;;;;15.30;11.17;;;21.30;34.50;;;;;;5030723;28;20509;-63
2022/04/22 12:08:05;;;;;;;13.90;11.40;;;21.50;34.20;;;;;;5031798;28;20437;-64
2022/04/22 12:10:34;;;;;;;13.43;12.00;;;21.60;34.20;;;;;;5031700;28;20437;-63
2022/04/22 12:13:02;;;;;;;13.70;12.20;;;21.60;33.90;;;;;;5031384;28;21002;-64
2022/04/22 12:15:30;;;;;;;12.90;11.63;;;21.60;32.90;;;;;;5031807;28;20444;-64
2022/04/22 12:17:57;;;;;;;12.93;11.63;;;21.50;32.30;;;;;;5031565;28;20438;-64
2022/04/22 12:20:25;;;;;;;13.73;11.13;;;21.30;31.60;;;;;;5031969;28;20438;-64
2022/04/22 12:22:52;;;;;;;12.77;11.47;;;21.20;32.80;;;;;;5031156;28;20568;-65
2022/04/22 12:25:21;;;;;;;13.17;11.77;;;21.30;34.00;;;;;;5031934;28;20528;-64
2022/04/22 12:28:08;;;;;;;12.30;10.53;;;21.30;34.20;;;;;;5031611;28;20529;-64
2022/04/22 12:30:37;;;;;;;11.43;10.33;;;21.20;31.90;;;;;;5030183;28;20452;-63
2022/04/22 12:33:04;;;;;;;12.63;11.00;;;21.20;32.20;;;;;;5031480;28;20481;-64
2022/04/22 12:35:32;;;;;;;10.70;8.87;;;21.00;32.70;;;;;;5031476;28;20446;-67
2022/04/22 12:38:04;;;;;;;10.50;9.00;;;20.90;32.70;;;;;;5031282;28;20513;-63
2022/04/22 12:40:44;;;;;;;10.10;9.10;;;20.70;32.70;;;;;;5031482;28;20995;-63
2022/04/22 12:43:27;;;;;;;10.90;9.70;;;20.60;32.90;;;;;;5031316;28;20449;-63
2022/04/22 12:52:09;;;;;;;10.53;9.43;;;20.40;33.80;;;;;;5028109;28;20442;-64
2022/04/22 12:54:36;;;;;;;10.03;8.73;;;20.30;33.90;;;;;;5031292;28;20551;-64
2022/04/22 12:57:05;;;;;;;9.60;8.70;;;20.30;32.80;;;;;;5031425;28;20477;-63
2022/04/22 12:59:46;;;;;;;10.70;9.43;;;20.30;33.10;;;;;;5031099;28;20441;-64
2022/04/22 13:02:14;;;;;;;10.77;9.40;;;20.30;33.10;;;;;;5031337;28;20529;-63
2022/04/22 13:05:09;;;;;;;11.13;9.67;;;20.30;33.80;;;;;;5031345;28;20457;-63
2022/04/22 13:07:40;;;;;;;10.03;9.03;;;20.20;33.30;;;;;;5031344;28;20537;-64
2022/04/22 13:10:09;;;;;;;10.53;8.70;;;20.10;33.80;;;;;;5031405;28;20454;-63
2022/04/22 13:12:39;;;;;;;13.30;9.53;;;20.10;33.20;;;;;;5031546;28;20845;-63
2022/04/22 13:15:09;;;;;;;8.83;8.03;;;20.30;34.10;;;;;;5031107;28;20517;-63
2022/04/22 13:17:40;;;;;;;10.43;9.43;;;20.30;34.80;;;;;;5031105;28;20520;-64
2022/04/22 13:20:09;;;;;;;13.43;9.60;;;20.40;34.70;;;;;;5031323;28;20449;-63
2022/04/22 13:22:36;;;;;;;10.57;9.57;;;20.30;33.90;;;;;;5027272;28;20442;-63
2022/04/22 13:25:03;;;;;;;12.40;9.10;;;20.30;34.10;;;;;;5031027;28;20438;-64
2022/04/22 13:27:30;;;;;;;10.63;9.30;;;20.40;33.30;;;;;;5031220;28;20446;-64
2022/04/22 13:29:57;;;;;;;9.40;8.50;;;20.20;33.60;;;;;;5033346;28;20464;-64
2022/04/22 13:32:26;;;;;;;10.93;9.10;;;20.10;32.80;;;;;;5034436;28;20935;-63
2022/04/22 13:34:53;;;;;;;10.07;8.93;;;20.00;33.60;;;;;;5034737;28;20485;-64
2022/04/22 13:37:20;;;;;;;10.20;7.83;;;19.90;34.40;;;;;;5034956;28;20781;-66
2022/04/22 13:39:47;;;;;;;10.13;8.07;;;19.90;34.10;;;;;;5034343;28;20536;-64
2022/04/22 13:42:15;;;;;;;9.83;8.83;;;19.70;34.20;;;;;;5034040;28;20559;-64
2022/04/22 13:52:56;;;;;;;9.33;8.33;;;19.50;34.80;;;;;;5031431;28;21039;-64
2022/04/22 13:55:23;;;;;;;10.40;8.90;;;19.40;34.70;;;;;;5034299;28;20445;-64
2022/04/22 13:57:51;;;;;;;11.40;8.37;;;19.40;35.30;;;;;;5034247;28;20992;-64
2022/04/22 14:00:19;;;;;;;10.10;8.83;;;19.30;35.30;;;;;;5034487;28;20441;-65